• Join FlightAware (Why Join?)
  • Login
  • US Flag 
06:05PM EDT


 

Airport Tracker/Info


-or-


 

Live Flight TrackerFlight Track Log ✈ UAL5848 ✈ 04-May-2013 ✈ KSYR - KORD

Flight Track Log - Related Links

Times and Time Zones

All times are in EDT time to prevent confusion due to time zone crossing. See the UAL5848 flight status page for this flight to view local times or setup timezone preferences in your user account.

Time Position Orientation Groundspeed Altitude Reporting Facility
EDT Latitude Longitude Course Direction KTS MPH feet Rate Location/Type
12:51PM 43.1419 -76.0314 61° Northeast 224 258 4,200  Level Boston Center
12:52PM 43.1728 -76.1131 297° West 275 316 6,400 2,220 Climbing Boston Center
12:54PM 43.1739 -76.2700 271° West 289 333 10,100 1,860 Climbing Cleveland Center
12:55PM 43.1908 -76.3883 281° West 300 345 11,400 1,200 Climbing Cleveland Center
12:56PM 43.1933 -76.5219 272° West 331 381 12,500 1,260 Climbing Cleveland Center
12:57PM 43.1903 -76.6675 268° West 362 417 14,000 1,620 Climbing Cleveland Center
12:58PM 43.1850 -76.8244 267° West 382 440 15,800 1,620 Climbing Cleveland Center
12:59PM 43.1856 -76.9725 270° West 388 447 17,300 1,320 Climbing Cleveland Center
01:00PM 43.1817 -77.1181 268° West 388 447 18,500 1,380 Climbing Cleveland Center
01:01PM 43.1778 -77.2692 268° West 388 447 20,100 1,500 Climbing Cleveland Center
01:02PM 43.1756 -77.4175 269° West 388 447 21,600 1,500 Climbing Cleveland Center
01:03PM 43.1711 -77.5658 268° West 388 447 23,100 1,500 Climbing Cleveland Center
01:04PM 43.1689 -77.7167 269° West 393 452 24,600 1,320 Climbing Cleveland Center
01:05PM 43.1661 -77.8678 269° West 398 458 25,800 1,140 Climbing Cleveland Center
01:06PM 43.1614 -78.0217 268° West 404 465 26,900 1,020 Climbing Cleveland Center
01:07PM 43.1564 -78.1783 268° West 410 472 27,900 960 Climbing Cleveland Center
01:08PM 43.1553 -78.3322 269° West 410 472 28,900 960 Climbing Cleveland Center
01:09PM 43.1500 -78.4889 267° West 410 472 29,900 540 Climbing Cleveland Center
01:10PM 43.1444 -78.6511 267° West 410 472 30,000  Climbing Cleveland Center
01:11PM 43.1386 -78.8222 267° West 431 496 30,000  Level Cleveland Center
01:12PM 43.1350 -78.9986 268° West 450 518 30,000 180 Level Cleveland Center
01:13PM 43.1167 -79.1833 262° West 450 518 30,400 840 Climbing Toronto Center
01:14PM 43.1167 -79.3667 270° West 440 506 31,900 1,380 Climbing Toronto Center
01:15PM 43.1000 -79.5167 261° West 430 495 33,200 1,200 Climbing Toronto Center
01:16PM 43.1000 -79.6833 270° West 430 495 34,400 960 Climbing Toronto Center
01:17PM 43.0833 -79.8333 261° West 430 495 35,200 780 Climbing Toronto Center
01:18PM 43.0833 -80.0000 270° West 430 495 36,000 360 Climbing Toronto Center
01:19PM 43.0833 -80.1500 270° West 430 495 36,000  Level Toronto Center
01:20PM 43.0667 -80.3167 262° West 420 483 36,000  Level Toronto Center
01:21PM 43.0667 -80.4833 270° West 420 483 36,000  Level Toronto Center
01:22PM 43.0500 -80.6333 261° West 420 483 36,000  Level Toronto Center
01:23PM 43.0500 -80.8000 270° West 420 483 36,000  Level Toronto Center
01:24PM 43.0333 -80.9833 263° West 430 495 36,000  Level Toronto Center
01:25PM 43.0167 -81.1333 261° West 430 495 36,000  Level Toronto Center
01:26PM 43.0167 -81.3000 270° West 430 495 36,000  Level Toronto Center
01:27PM 43.0167 -81.4500 270° West 430 495 36,000  Level Toronto Center
01:28PM 43.0167 -81.6167 270° West 440 506 36,000  Level Toronto Center
01:29PM 43.0167 -81.8000 270° West 450 518 36,000  Level Toronto Center
01:30PM 43.0000 -81.9667 262° West 440 506 36,000  Level Toronto Center
01:31PM 43.0000 -82.1167 270° West 430 495 36,000  Level Toronto Center
01:32PM 43.0000 -82.3000 270° West 430 495 36,000  Level Toronto Center
01:33PM 43.0000 -82.4667 270° West 440 506 36,000  Level Toronto Center
01:34PM 43.0000 -82.6167 270° West 450 518 36,000  Level Toronto Center
01:35PM 43.0014 -82.7039 271° West 437 503 36,000  Level Cleveland Center
01:36PM 42.9981 -82.8797 269° West 449 517 36,000  Level Cleveland Center
01:37PM 42.9903 -83.0497 266° West 449 517 36,000  Level Cleveland Center
01:38PM 42.9844 -83.2169 267° West 449 517 36,000  Level Cleveland Center
01:39PM 42.9806 -83.3814 268° West 449 517 36,000  Level Cleveland Center
01:40PM 42.9722 -83.5542 266° West 449 517 36,000  Level Cleveland Center
01:41PM 42.9656 -83.7269 267° West 454 522 36,000  Level Cleveland Center
01:42PM 42.9522 -83.9022 264° West 462 532 36,000  Level Cleveland Center
01:43PM 42.9347 -84.0714 262° West 462 532 36,000 -360 Level Cleveland Center
01:44PM 42.9000 -84.3500 260° West 460 529 35,200 -1,020 Descending Toronto Center
01:45PM 42.8989 -84.4461 269° West 452 520 33,600 -1,800 Descending Chicago Center
01:46PM 42.8789 -84.6400 262° West 434 499 32,000 -1,320 Descending Chicago Center
01:47PM 42.8611 -84.8036 262° West 436 502 30,900 -1,320 Descending Chicago Center
01:48PM 42.8444 -84.9719 262° West 446 513 29,300 -1,380 Descending Chicago Center
01:49PM 42.8261 -85.1461 262° West 462 532 28,100 -660 Descending Chicago Center
01:50PM 42.8058 -85.3214 261° West 467 537 28,000 -420 Descending Chicago Center
01:51PM 42.7867 -85.4939 261° West 462 532 27,300 -1,080 Descending Chicago Center
01:52PM 42.7572 -85.6664 257° West 464 534 25,800 -1,500 Descending Chicago Center
01:53PM 42.7272 -85.8325 256° West 453 521 24,300 -1,560 Descending Chicago Center
01:54PM 42.6969 -85.9939 256° West 440 506 22,600 -1,800 Descending Chicago Center
01:55PM 42.6672 -86.1564 256° West 439 505 20,700 -1,620 Descending Chicago Center
01:56PM 42.6322 -86.3456 256° West 428 493 19,400 -1,680 Descending Chicago Center
01:57PM 42.6039 -86.4972 256° West 417 480 17,300 -2,100 Descending Chicago Center
01:58PM 42.5778 -86.6350 256° West 384 442 15,200 -1,860 Descending Chicago Center
01:59PM 42.5497 -86.7706 254° West 373 429 13,500 -1,620 Descending Chicago Center
02:00PM 42.5108 -86.9083 249° West 386 444 11,900 -1,560 Descending Chicago Center
02:01PM 42.4742 -87.0397 249° West 377 434 10,400 -1,020 Descending Chicago Center
02:02PM 42.4406 -87.1658 250° West 361 415 9,900 -300 Descending Chicago Center
02:03PM 42.4047 -87.2942 249° West 361 415 9,900  Level Chicago Center
02:04PM 42.3633 -87.4453 250° West 365 420 10,000  Climbing Chicago Center
02:05PM 42.3194 -87.5553 242° Southwest 339 390 9,900 -660 Descending Chicago Center
02:06PM 42.2556 -87.6214 217° Southwest 292 336 8,700 -1,020 Descending Chicago Center
02:07PM 42.1969 -87.6872 220° Southwest 277 319 7,900 -360 Descending Chicago Center
02:09PM 42.1381 -87.7475 217° Southwest 269 310 8,000 60 Climbing Chicago Center
02:09PM 42.0667 -87.8000 209° Southwest 265 305 8,100  Climbing Chicago TRACON
02:10PM 42.0167 -87.8333 206° Southwest 271 312 8,100 -300 Level Chicago TRACON
02:11PM 41.9333 -87.8667 197° South 266 306 7,500 -840 Descending Chicago TRACON
02:12PM 41.8833 -87.9000 206° Southwest 224 258 6,400 -1,140 Descending Chicago TRACON
02:13PM 41.8714 -87.9081 207° Southwest 227 261 6,100 -1,500 Descending Chicago Center
02:14PM 41.8131 -87.9403 202° Southwest 226 260 4,500 -1,080 Descending Chicago Center
02:15PM 41.7892 -88.0025 243° Southwest 240 276 3,900 -360 Descending Chicago Center
02:16PM 41.8381 -88.0147 349° North 211 243 3,800 -720 Descending Chicago Center
02:17PM 41.8861 -87.9819 27° Northeast 178 205 2,500 -1,200 Descending Chicago Center
02:17PM 41.9000 -87.9667 39° Northeast 167 192 2,200 -840 Descending Chicago TRACON
02:18PM 41.9333 -87.9333 37° Northeast 126 145 1,400 -780 Descending Chicago TRACON
02:19PM 41.9500 -87.9000 56° Northeast 129 148 800 -660 Descending Chicago TRACON
02:21PM 41.9667 -87.9000 31° Northeast  Level FlightAware Approximate